sensor_id;sensor_type;location;lat;lon;timestamp;temperature;humidity
46231;DHT22;31949;51.404;-0.038;2023-07-28T00:01:20;19.70;99.90
46231;DHT22;31949;51.404;-0.038;2023-07-28T00:03:47;19.80;99.90
46231;DHT22;31949;51.404;-0.038;2023-07-28T00:06:14;19.70;99.90
46231;DHT22;31949;51.404;-0.038;2023-07-28T00:08:41;19.70;99.90
46231;DHT22;31949;51.404;-0.038;2023-07-28T00:11:10;19.80;99.90
46231;DHT22;31949;51.404;-0.038;2023-07-28T00:13:39;19.80;99.90
46231;DHT22;31949;51.404;-0.038;2023-07-28T00:16:07;19.70;99.90
46231;DHT22;31949;51.404;-0.038;2023-07-28T00:18:35;19.60;99.90
46231;DHT22;31949;51.404;-0.038;2023-07-28T00:21:04;19.50;99.90
46231;DHT22;31949;51.404;-0.038;2023-07-28T00:23:31;19.50;99.90
46231;DHT22;31949;51.404;-0.038;2023-07-28T00:25:59;19.50;99.90
46231;DHT22;31949;51.404;-0.038;2023-07-28T00:28:26;19.50;99.90
46231;DHT22;31949;51.404;-0.038;2023-07-28T00:30:53;19.40;99.90
46231;DHT22;31949;51.404;-0.038;2023-07-28T00:33:20;19.40;99.90
46231;DHT22;31949;51.404;-0.038;2023-07-28T00:35:49;19.30;99.90
46231;DHT22;31949;51.404;-0.038;2023-07-28T00:38:16;19.30;99.90
46231;DHT22;31949;51.404;-0.038;2023-07-28T00:40:44;19.20;99.90
46231;DHT22;31949;51.404;-0.038;2023-07-28T00:43:12;19.20;99.90
46231;DHT22;31949;51.404;-0.038;2023-07-28T00:45:39;19.30;99.90
46231;DHT22;31949;51.404;-0.038;2023-07-28T00:48:11;19.30;99.90
46231;DHT22;31949;51.404;-0.038;2023-07-28T00:50:42;19.40;99.90
46231;DHT22;31949;51.404;-0.038;2023-07-28T00:53:11;19.40;99.90
46231;DHT22;31949;51.404;-0.038;2023-07-28T00:55:39;19.40;99.90
46231;DHT22;31949;51.404;-0.038;2023-07-28T00:58:08;19.40;99.90
46231;DHT22;31949;51.404;-0.038;2023-07-28T01:00:36;19.30;99.90
46231;DHT22;31949;51.404;-0.038;2023-07-28T01:03:04;19.20;99.90
46231;DHT22;31949;51.404;-0.038;2023-07-28T01:05:50;19.20;99.90
46231;DHT22;31949;51.404;-0.038;2023-07-28T01:08:30;19.20;99.90
46231;DHT22;31949;51.404;-0.038;2023-07-28T01:10:59;19.30;99.90
46231;DHT22;31949;51.404;-0.038;2023-07-28T01:13:27;19.30;99.90
46231;DHT22;31949;51.404;-0.038;2023-07-28T01:15:55;19.30;99.90
46231;DHT22;31949;51.404;-0.038;2023-07-28T01:18:22;19.40;99.90
46231;DHT22;31949;51.404;-0.038;2023-07-28T01:20:50;19.30;99.90
46231;DHT22;31949;51.404;-0.038;2023-07-28T01:23:28;19.30;99.90
46231;DHT22;31949;51.404;-0.038;2023-07-28T01:26:11;19.30;99.90
46231;DHT22;31949;51.404;-0.038;2023-07-28T01:28:40;19.30;99.90
46231;DHT22;31949;51.404;-0.038;2023-07-28T01:31:08;19.30;99.90
46231;DHT22;31949;51.404;-0.038;2023-07-28T01:33:36;19.30;99.90
46231;DHT22;31949;51.404;-0.038;2023-07-28T01:36:03;19.30;99.90
46231;DHT22;31949;51.404;-0.038;2023-07-28T01:38:31;19.20;99.90
46231;DHT22;31949;51.404;-0.038;2023-07-28T01:40:58;19.20;99.90
46231;DHT22;31949;51.404;-0.038;2023-07-28T01:43:25;19.30;99.90
46231;DHT22;31949;51.404;-0.038;2023-07-28T01:45:53;19.30;99.90
46231;DHT22;31949;51.404;-0.038;2023-07-28T01:48:20;19.30;99.90
46231;DHT22;31949;51.404;-0.038;2023-07-28T01:50:47;19.30;99.90
46231;DHT22;31949;51.404;-0.038;2023-07-28T01:53:14;19.30;99.90
46231;DHT22;31949;51.404;-0.038;2023-07-28T01:55:42;19.20;99.90
46231;DHT22;31949;51.404;-0.038;2023-07-28T01:58:09;19.20;99.90
46231;DHT22;31949;51.404;-0.038;2023-07-28T02:00:37;19.20;99.90
46231;DHT22;31949;51.404;-0.038;2023-07-28T02:03:04;19.20;99.90
46231;DHT22;31949;51.404;-0.038;2023-07-28T02:05:31;19.20;99.90
46231;DHT22;31949;51.404;-0.038;2023-07-28T02:07:59;19.10;99.90
46231;DHT22;31949;51.404;-0.038;2023-07-28T02:10:27;19.10;99.90
46231;DHT22;31949;51.404;-0.038;2023-07-28T02:12:55;19.10;99.90
46231;DHT22;31949;51.404;-0.038;2023-07-28T02:15:23;19.10;99.90
46231;DHT22;31949;51.404;-0.038;2023-07-28T02:17:50;19.10;99.90
46231;DHT22;31949;51.404;-0.038;2023-07-28T02:20:22;19.10;99.90
46231;DHT22;31949;51.404;-0.038;2023-07-28T02:22:49;19.10;99.90
46231;DHT22;31949;51.404;-0.038;2023-07-28T02:25:16;19.10;99.90
46231;DHT22;31949;51.404;-0.038;2023-07-28T02:27:44;19.10;99.90
46231;DHT22;31949;51.404;-0.038;2023-07-28T02:30:11;19.10;99.90
46231;DHT22;31949;51.404;-0.038;2023-07-28T02:32:38;19.10;99.90
46231;DHT22;31949;51.404;-0.038;2023-07-28T02:35:06;19.00;99.90
46231;DHT22;31949;51.404;-0.038;2023-07-28T02:37:33;19.10;99.90
46231;DHT22;31949;51.404;-0.038;2023-07-28T02:40:00;19.00;99.90
46231;DHT22;31949;51.404;-0.038;2023-07-28T02:42:30;19.00;99.90
46231;DHT22;31949;51.404;-0.038;2023-07-28T02:44:58;18.90;99.90
46231;DHT22;31949;51.404;-0.038;2023-07-28T02:47:25;19.00;99.90
46231;DHT22;31949;51.404;-0.038;2023-07-28T02:49:52;18.90;99.90
46231;DHT22;31949;51.404;-0.038;2023-07-28T02:52:19;18.90;99.90
46231;DHT22;31949;51.404;-0.038;2023-07-28T02:54:47;18.90;99.90
46231;DHT22;31949;51.404;-0.038;2023-07-28T02:57:14;18.90;99.90
46231;DHT22;31949;51.404;-0.038;2023-07-28T02:59:44;18.90;99.90
46231;DHT22;31949;51.404;-0.038;2023-07-28T03:02:11;18.80;99.90
46231;DHT22;31949;51.404;-0.038;2023-07-28T03:04:39;18.80;99.90
46231;DHT22;31949;51.404;-0.038;2023-07-28T03:07:24;18.80;99.90
46231;DHT22;31949;51.404;-0.038;2023-07-28T03:09:59;18.70;99.90
46231;DHT22;31949;51.404;-0.038;2023-07-28T03:12:28;18.70;99.90
46231;DHT22;31949;51.404;-0.038;2023-07-28T03:14:55;18.80;99.90
46231;DHT22;31949;51.404;-0.038;2023-07-28T03:17:22;18.70;99.90
46231;DHT22;31949;51.404;-0.038;2023-07-28T03:19:50;18.70;99.90
46231;DHT22;31949;51.404;-0.038;2023-07-28T03:22:17;18.70;99.90
46231;DHT22;31949;51.404;-0.038;2023-07-28T03:24:44;18.70;99.90
46231;DHT22;31949;51.404;-0.038;2023-07-28T03:27:13;18.60;99.90
46231;DHT22;31949;51.404;-0.038;2023-07-28T03:29:40;18.60;99.90
46231;DHT22;31949;51.404;-0.038;2023-07-28T03:32:08;18.60;99.90
46231;DHT22;31949;51.404;-0.038;2023-07-28T03:34:35;18.60;99.90
46231;DHT22;31949;51.404;-0.038;2023-07-28T03:37:05;18.60;99.90
46231;DHT22;31949;51.404;-0.038;2023-07-28T03:39:32;18.60;99.90
46231;DHT22;31949;51.404;-0.038;2023-07-28T03:42:00;18.60;99.90
46231;DHT22;31949;51.404;-0.038;2023-07-28T03:44:28;18.70;99.90
46231;DHT22;31949;51.404;-0.038;2023-07-28T03:46:55;18.60;99.90
46231;DHT22;31949;51.404;-0.038;2023-07-28T03:49:23;18.60;99.90
46231;DHT22;31949;51.404;-0.038;2023-07-28T03:51:50;18.60;99.90
46231;DHT22;31949;51.404;-0.038;2023-07-28T03:54:17;18.60;99.90
46231;DHT22;31949;51.404;-0.038;2023-07-28T03:56:47;18.50;99.90
46231;DHT22;31949;51.404;-0.038;2023-07-28T03:59:14;18.60;99.90
46231;DHT22;31949;51.404;-0.038;2023-07-28T04:01:41;18.60;99.90
46231;DHT22;31949;51.404;-0.038;2023-07-28T04:04:08;18.50;99.90
46231;DHT22;31949;51.404;-0.038;2023-07-28T04:06:46;18.50;99.90
46231;DHT22;31949;51.404;-0.038;2023-07-28T04:09:15;18.50;99.90
46231;DHT22;31949;51.404;-0.038;2023-07-28T04:11:42;18.40;99.90
46231;DHT22;31949;51.404;-0.038;2023-07-28T04:14:09;18.40;99.90
46231;DHT22;31949;51.404;-0.038;2023-07-28T04:16:37;18.50;99.90
46231;DHT22;31949;51.404;-0.038;2023-07-28T04:19:05;18.40;99.90
46231;DHT22;31949;51.404;-0.038;2023-07-28T04:21:32;18.40;99.90
46231;DHT22;31949;51.404;-0.038;2023-07-28T04:24:00;18.40;99.90
46231;DHT22;31949;51.404;-0.038;2023-07-28T04:26:27;18.40;99.90
46231;DHT22;31949;51.404;-0.038;2023-07-28T04:28:59;18.50;99.90
46231;DHT22;31949;51.404;-0.038;2023-07-28T04:31:26;18.40;99.90
46231;DHT22;31949;51.404;-0.038;2023-07-28T04:33:58;18.40;99.90
46231;DHT22;31949;51.404;-0.038;2023-07-28T04:36:39;18.40;99.90
46231;DHT22;31949;51.404;-0.038;2023-07-28T04:39:06;18.50;99.90
46231;DHT22;31949;51.404;-0.038;2023-07-28T04:41:33;18.50;99.90
46231;DHT22;31949;51.404;-0.038;2023-07-28T04:44:01;18.50;99.90
46231;DHT22;31949;51.404;-0.038;2023-07-28T04:46:33;18.40;99.90
46231;DHT22;31949;51.404;-0.038;2023-07-28T04:49:04;18.40;99.90
46231;DHT22;31949;51.404;-0.038;2023-07-28T04:51:50;18.50;99.90
46231;DHT22;31949;51.404;-0.038;2023-07-28T04:54:20;18.40;99.90
46231;DHT22;31949;51.404;-0.038;2023-07-28T04:56:47;18.40;99.90
46231;DHT22;31949;51.404;-0.038;2023-07-28T04:59:16;18.40;99.90
46231;DHT22;31949;51.404;-0.038;2023-07-28T05:01:44;18.30;99.90
46231;DHT22;31949;51.404;-0.038;2023-07-28T05:04:11;18.40;99.90
46231;DHT22;31949;51.404;-0.038;2023-07-28T05:06:38;18.30;99.90
46231;DHT22;31949;51.404;-0.038;2023-07-28T05:09:05;18.40;99.90
46231;DHT22;31949;51.404;-0.038;2023-07-28T05:11:34;18.40;99.90
46231;DHT22;31949;51.404;-0.038;2023-07-28T05:14:02;18.40;99.90
46231;DHT22;31949;51.404;-0.038;2023-07-28T05:16:30;18.40;99.90
46231;DHT22;31949;51.404;-0.038;2023-07-28T05:19:06;18.30;99.90
46231;DHT22;31949;51.404;-0.038;2023-07-28T05:21:54;18.30;99.90
46231;DHT22;31949;51.404;-0.038;2023-07-28T05:24:29;18.40;99.90
46231;DHT22;31949;51.404;-0.038;2023-07-28T05:26:56;18.40;99.90
46231;DHT22;31949;51.404;-0.038;2023-07-28T05:29:24;18.30;99.90
46231;DHT22;31949;51.404;-0.038;2023-07-28T05:31:53;18.40;99.90
46231;DHT22;31949;51.404;-0.038;2023-07-28T05:34:33;18.30;99.90
46231;DHT22;31949;51.404;-0.038;2023-07-28T05:37:01;18.20;99.90
46231;DHT22;31949;51.404;-0.038;2023-07-28T05:39:31;18.20;99.90
46231;DHT22;31949;51.404;-0.038;2023-07-28T05:41:58;18.10;99.90
46231;DHT22;31949;51.404;-0.038;2023-07-28T05:44:26;18.20;99.90
46231;DHT22;31949;51.404;-0.038;2023-07-28T05:46:53;18.20;99.90
46231;DHT22;31949;51.404;-0.038;2023-07-28T05:49:21;18.20;99.90
46231;DHT22;31949;51.404;-0.038;2023-07-28T05:51:48;18.20;99.90
46231;DHT22;31949;51.404;-0.038;2023-07-28T05:54:15;18.30;99.90
46231;DHT22;31949;51.404;-0.038;2023-07-28T05:56:43;18.50;99.90
46231;DHT22;31949;51.404;-0.038;2023-07-28T05:59:10;18.50;99.90
46231;DHT22;31949;51.404;-0.038;2023-07-28T06:01:38;18.50;99.90
46231;DHT22;31949;51.404;-0.038;2023-07-28T06:04:08;18.50;99.90
46231;DHT22;31949;51.404;-0.038;2023-07-28T06:06:41;18.60;99.90
46231;DHT22;31949;51.404;-0.038;2023-07-28T06:09:09;18.60;99.90
46231;DHT22;31949;51.404;-0.038;2023-07-28T06:11:37;18.60;99.90
46231;DHT22;31949;51.404;-0.038;2023-07-28T06:14:04;18.50;99.90
46231;DHT22;31949;51.404;-0.038;2023-07-28T06:16:34;18.60;99.90
46231;DHT22;31949;51.404;-0.038;2023-07-28T06:19:01;18.70;99.90
46231;DHT22;31949;51.404;-0.038;2023-07-28T06:21:29;18.70;99.90
46231;DHT22;31949;51.404;-0.038;2023-07-28T06:23:56;18.60;99.90
46231;DHT22;31949;51.404;-0.038;2023-07-28T06:26:23;18.90;99.90
46231;DHT22;31949;51.404;-0.038;2023-07-28T06:28:51;19.00;99.90
46231;DHT22;31949;51.404;-0.038;2023-07-28T06:31:18;19.10;99.90
46231;DHT22;31949;51.404;-0.038;2023-07-28T06:33:47;19.10;99.90
46231;DHT22;31949;51.404;-0.038;2023-07-28T06:36:14;19.10;99.90
46231;DHT22;31949;51.404;-0.038;2023-07-28T06:38:41;19.10;99.90
46231;DHT22;31949;51.404;-0.038;2023-07-28T06:41:11;19.00;99.90
46231;DHT22;31949;51.404;-0.038;2023-07-28T06:43:38;19.10;99.90
46231;DHT22;31949;51.404;-0.038;2023-07-28T06:46:07;19.10;99.90
46231;DHT22;31949;51.404;-0.038;2023-07-28T06:48:34;19.10;99.90
46231;DHT22;31949;51.404;-0.038;2023-07-28T06:51:01;19.10;99.90
46231;DHT22;31949;51.404;-0.038;2023-07-28T06:53:29;19.10;99.90
46231;DHT22;31949;51.404;-0.038;2023-07-28T06:55:56;19.10;99.90
46231;DHT22;31949;51.404;-0.038;2023-07-28T06:58:23;19.10;99.90
46231;DHT22;31949;51.404;-0.038;2023-07-28T07:00:50;19.20;99.90
46231;DHT22;31949;51.404;-0.038;2023-07-28T07:03:18;19.20;99.90
46231;DHT22;31949;51.404;-0.038;2023-07-28T07:05:46;19.20;99.90
46231;DHT22;31949;51.404;-0.038;2023-07-28T07:08:13;19.20;99.90
46231;DHT22;31949;51.404;-0.038;2023-07-28T07:10:48;19.30;99.90
46231;DHT22;31949;51.404;-0.038;2023-07-28T07:13:16;19.20;99.90
46231;DHT22;31949;51.404;-0.038;2023-07-28T07:15:43;19.30;99.90
46231;DHT22;31949;51.404;-0.038;2023-07-28T07:18:10;19.20;99.90
46231;DHT22;31949;51.404;-0.038;2023-07-28T07:20:38;19.20;99.90
46231;DHT22;31949;51.404;-0.038;2023-07-28T07:23:05;19.20;99.90
46231;DHT22;31949;51.404;-0.038;2023-07-28T07:25:33;19.30;99.90
46231;DHT22;31949;51.404;-0.038;2023-07-28T07:28:03;19.30;99.90
46231;DHT22;31949;51.404;-0.038;2023-07-28T07:30:34;19.30;99.90
46231;DHT22;31949;51.404;-0.038;2023-07-28T07:33:01;19.20;99.90
46231;DHT22;31949;51.404;-0.038;2023-07-28T07:35:28;19.20;99.90
46231;DHT22;31949;51.404;-0.038;2023-07-28T07:37:55;19.20;99.90
46231;DHT22;31949;51.404;-0.038;2023-07-28T07:40:23;19.20;99.90
46231;DHT22;31949;51.404;-0.038;2023-07-28T07:42:54;19.10;99.90
46231;DHT22;31949;51.404;-0.038;2023-07-28T07:45:23;19.10;99.90
46231;DHT22;31949;51.404;-0.038;2023-07-28T07:47:50;19.10;99.90
46231;DHT22;31949;51.404;-0.038;2023-07-28T07:50:17;19.20;99.90
46231;DHT22;31949;51.404;-0.038;2023-07-28T07:52:45;19.20;99.90
46231;DHT22;31949;51.404;-0.038;2023-07-28T07:55:12;19.20;99.90
46231;DHT22;31949;51.404;-0.038;2023-07-28T07:57:40;19.30;99.90
46231;DHT22;31949;51.404;-0.038;2023-07-28T08:00:08;19.30;99.90
46231;DHT22;31949;51.404;-0.038;2023-07-28T08:02:38;19.30;99.90
46231;DHT22;31949;51.404;-0.038;2023-07-28T08:05:06;19.30;99.90
46231;DHT22;31949;51.404;-0.038;2023-07-28T08:07:34;19.40;99.90
46231;DHT22;31949;51.404;-0.038;2023-07-28T08:10:02;19.40;99.90
46231;DHT22;31949;51.404;-0.038;2023-07-28T08:12:29;19.30;99.90
46231;DHT22;31949;51.404;-0.038;2023-07-28T08:14:57;19.30;99.90
46231;DHT22;31949;51.404;-0.038;2023-07-28T08:17:24;19.30;99.90
46231;DHT22;31949;51.404;-0.038;2023-07-28T08:19:51;19.40;99.90
46231;DHT22;31949;51.404;-0.038;2023-07-28T08:22:19;19.40;99.90
46231;DHT22;31949;51.404;-0.038;2023-07-28T08:24:46;19.50;99.90
46231;DHT22;31949;51.404;-0.038;2023-07-28T08:27:13;19.50;99.90
46231;DHT22;31949;51.404;-0.038;2023-07-28T08:29:40;19.50;99.90
46231;DHT22;31949;51.404;-0.038;2023-07-28T08:32:08;19.50;99.90
46231;DHT22;31949;51.404;-0.038;2023-07-28T08:34:36;19.70;99.90
46231;DHT22;31949;51.404;-0.038;2023-07-28T08:37:03;19.70;99.90
46231;DHT22;31949;51.404;-0.038;2023-07-28T08:39:31;19.80;99.90
46231;DHT22;31949;51.404;-0.038;2023-07-28T08:42:02;19.90;99.90
46231;DHT22;31949;51.404;-0.038;2023-07-28T08:44:33;19.90;99.90
46231;DHT22;31949;51.404;-0.038;2023-07-28T08:47:02;19.80;99.90
46231;DHT22;31949;51.404;-0.038;2023-07-28T08:49:32;20.00;99.90
46231;DHT22;31949;51.404;-0.038;2023-07-28T08:52:00;20.00;99.90
46231;DHT22;31949;51.404;-0.038;2023-07-28T08:54:28;20.10;99.90
46231;DHT22;31949;51.404;-0.038;2023-07-28T08:56:57;20.30;99.90
46231;DHT22;31949;51.404;-0.038;2023-07-28T08:59:26;20.40;99.90
46231;DHT22;31949;51.404;-0.038;2023-07-28T09:01:55;20.60;99.90
46231;DHT22;31949;51.404;-0.038;2023-07-28T09:04:24;20.40;99.90
46231;DHT22;31949;51.404;-0.038;2023-07-28T09:06:51;20.50;99.90
46231;DHT22;31949;51.404;-0.038;2023-07-28T09:09:22;20.60;99.90
46231;DHT22;31949;51.404;-0.038;2023-07-28T09:11:53;20.70;99.90
46231;DHT22;31949;51.404;-0.038;2023-07-28T09:14:21;20.70;99.90
46231;DHT22;31949;51.404;-0.038;2023-07-28T09:16:53;20.80;99.90
46231;DHT22;31949;51.404;-0.038;2023-07-28T09:19:21;20.90;99.90
46231;DHT22;31949;51.404;-0.038;2023-07-28T09:22:01;20.90;99.90
46231;DHT22;31949;51.404;-0.038;2023-07-28T09:24:32;20.90;99.90
46231;DHT22;31949;51.404;-0.038;2023-07-28T09:27:01;20.90;99.90
46231;DHT22;31949;51.404;-0.038;2023-07-28T09:29:28;21.10;99.90
46231;DHT22;31949;51.404;-0.038;2023-07-28T09:32:04;21.20;99.90
46231;DHT22;31949;51.404;-0.038;2023-07-28T09:34:31;21.20;99.90
46231;DHT22;31949;51.404;-0.038;2023-07-28T09:37:00;21.20;99.90
46231;DHT22;31949;51.404;-0.038;2023-07-28T09:39:28;21.20;99.90
46231;DHT22;31949;51.404;-0.038;2023-07-28T09:41:55;21.10;99.90
46231;DHT22;31949;51.404;-0.038;2023-07-28T09:44:26;21.10;99.90
46231;DHT22;31949;51.404;-0.038;2023-07-28T09:46:55;21.10;99.90
46231;DHT22;31949;51.404;-0.038;2023-07-28T09:49:32;21.20;99.90
46231;DHT22;31949;51.404;-0.038;2023-07-28T09:52:05;21.20;99.90
46231;DHT22;31949;51.404;-0.038;2023-07-28T09:54:45;21.20;99.90
46231;DHT22;31949;51.404;-0.038;2023-07-28T09:57:20;21.30;99.90
46231;DHT22;31949;51.404;-0.038;2023-07-28T09:59:48;21.30;99.90
46231;DHT22;31949;51.404;-0.038;2023-07-28T10:02:17;21.40;99.90
46231;DHT22;31949;51.404;-0.038;2023-07-28T10:04:44;21.40;99.90
46231;DHT22;31949;51.404;-0.038;2023-07-28T10:07:12;21.30;99.90
46231;DHT22;31949;51.404;-0.038;2023-07-28T10:09:40;21.20;99.90
46231;DHT22;31949;51.404;-0.038;2023-07-28T10:12:18;21.40;99.90
46231;DHT22;31949;51.404;-0.038;2023-07-28T10:14:46;21.30;99.90
46231;DHT22;31949;51.404;-0.038;2023-07-28T10:17:16;21.30;99.90
46231;DHT22;31949;51.404;-0.038;2023-07-28T10:19:44;21.30;99.90
46231;DHT22;31949;51.404;-0.038;2023-07-28T10:22:12;21.60;99.90
46231;DHT22;31949;51.404;-0.038;2023-07-28T10:24:56;21.70;99.90
46231;DHT22;31949;51.404;-0.038;2023-07-28T10:27:30;21.90;99.90
46231;DHT22;31949;51.404;-0.038;2023-07-28T10:29:59;22.00;99.90
46231;DHT22;31949;51.404;-0.038;2023-07-28T10:32:27;22.10;99.90
46231;DHT22;31949;51.404;-0.038;2023-07-28T10:35:07;22.10;99.90
46231;DHT22;31949;51.404;-0.038;2023-07-28T10:37:36;22.20;99.90
46231;DHT22;31949;51.404;-0.038;2023-07-28T10:40:42;22.20;99.90
46231;DHT22;31949;51.404;-0.038;2023-07-28T10:43:09;22.10;99.90
46231;DHT22;31949;51.404;-0.038;2023-07-28T10:45:37;22.30;99.90
46231;DHT22;31949;51.404;-0.038;2023-07-28T10:48:07;22.30;99.90
46231;DHT22;31949;51.404;-0.038;2023-07-28T10:50:35;22.40;99.90
46231;DHT22;31949;51.404;-0.038;2023-07-28T10:53:02;22.20;99.90
46231;DHT22;31949;51.404;-0.038;2023-07-28T10:55:30;22.10;99.90
46231;DHT22;31949;51.404;-0.038;2023-07-28T10:57:57;22.00;99.90
46231;DHT22;31949;51.404;-0.038;2023-07-28T11:00:25;22.00;99.90
46231;DHT22;31949;51.404;-0.038;2023-07-28T11:02:54;22.00;99.90
46231;DHT22;31949;51.404;-0.038;2023-07-28T11:05:23;22.00;99.90
46231;DHT22;31949;51.404;-0.038;2023-07-28T11:07:54;21.90;99.90
46231;DHT22;31949;51.404;-0.038;2023-07-28T11:10:22;21.80;99.90
46231;DHT22;31949;51.404;-0.038;2023-07-28T11:12:52;21.70;99.90
46231;DHT22;31949;51.404;-0.038;2023-07-28T11:15:20;21.70;99.90
46231;DHT22;31949;51.404;-0.038;2023-07-28T11:17:49;21.70;99.90
46231;DHT22;31949;51.404;-0.038;2023-07-28T11:22:57;21.50;99.90
46231;DHT22;31949;51.404;-0.038;2023-07-28T11:25:25;21.40;99.90
46231;DHT22;31949;51.404;-0.038;2023-07-28T11:27:52;21.40;99.90
46231;DHT22;31949;51.404;-0.038;2023-07-28T11:30:20;21.30;99.90
46231;DHT22;31949;51.404;-0.038;2023-07-28T11:32:50;21.20;99.90
46231;DHT22;31949;51.404;-0.038;2023-07-28T11:35:20;21.20;99.90
46231;DHT22;31949;51.404;-0.038;2023-07-28T11:37:52;21.10;99.90
46231;DHT22;31949;51.404;-0.038;2023-07-28T11:40:21;21.10;99.90
46231;DHT22;31949;51.404;-0.038;2023-07-28T11:42:51;21.20;99.90
46231;DHT22;31949;51.404;-0.038;2023-07-28T11:45:20;21.40;99.90
46231;DHT22;31949;51.404;-0.038;2023-07-28T11:50:28;21.50;99.90
46231;DHT22;31949;51.404;-0.038;2023-07-28T11:52:59;21.50;99.90
46231;DHT22;31949;51.404;-0.038;2023-07-28T11:55:27;21.60;99.90
46231;DHT22;31949;51.404;-0.038;2023-07-28T11:57:55;21.50;99.90
46231;DHT22;31949;51.404;-0.038;2023-07-28T12:00:31;21.40;99.90
46231;DHT22;31949;51.404;-0.038;2023-07-28T12:03:08;21.50;99.90
46231;DHT22;31949;51.404;-0.038;2023-07-28T12:06:02;21.50;99.90
46231;DHT22;31949;51.404;-0.038;2023-07-28T12:08:38;21.60;99.90
46231;DHT22;31949;51.404;-0.038;2023-07-28T12:11:06;21.80;99.90
46231;DHT22;31949;51.404;-0.038;2023-07-28T12:13:51;22.00;99.90
46231;DHT22;31949;51.404;-0.038;2023-07-28T12:16:38;22.30;99.90
46231;DHT22;31949;51.404;-0.038;2023-07-28T12:19:09;22.40;99.90
46231;DHT22;31949;51.404;-0.038;2023-07-28T12:21:36;22.80;99.90
46231;DHT22;31949;51.404;-0.038;2023-07-28T12:24:04;23.00;99.90
46231;DHT22;31949;51.404;-0.038;2023-07-28T12:26:34;23.10;99.90
46231;DHT22;31949;51.404;-0.038;2023-07-28T12:29:06;23.30;99.90
46231;DHT22;31949;51.404;-0.038;2023-07-28T12:31:37;23.40;99.90
46231;DHT22;31949;51.404;-0.038;2023-07-28T12:34:08;23.40;99.90
46231;DHT22;31949;51.404;-0.038;2023-07-28T12:36:35;23.30;99.90
46231;DHT22;31949;51.404;-0.038;2023-07-28T12:39:06;23.10;99.90
46231;DHT22;31949;51.404;-0.038;2023-07-28T12:41:36;23.00;99.90
46231;DHT22;31949;51.404;-0.038;2023-07-28T12:44:07;23.10;99.90
46231;DHT22;31949;51.404;-0.038;2023-07-28T12:46:38;23.10;99.90
46231;DHT22;31949;51.404;-0.038;2023-07-28T12:49:06;23.20;99.90
46231;DHT22;31949;51.404;-0.038;2023-07-28T12:51:34;23.30;99.90
46231;DHT22;31949;51.404;-0.038;2023-07-28T12:54:01;23.20;99.90
46231;DHT22;31949;51.404;-0.038;2023-07-28T12:56:28;23.10;99.90
46231;DHT22;31949;51.404;-0.038;2023-07-28T12:58:58;23.00;99.90
46231;DHT22;31949;51.404;-0.038;2023-07-28T13:01:28;22.90;99.90
46231;DHT22;31949;51.404;-0.038;2023-07-28T13:03:56;22.90;99.90
46231;DHT22;31949;51.404;-0.038;2023-07-28T13:06:23;22.80;99.90
46231;DHT22;31949;51.404;-0.038;2023-07-28T13:08:50;22.70;99.90
46231;DHT22;31949;51.404;-0.038;2023-07-28T13:11:21;22.60;99.90
46231;DHT22;31949;51.404;-0.038;2023-07-28T13:13:48;22.80;99.90
46231;DHT22;31949;51.404;-0.038;2023-07-28T13:16:15;22.60;99.90
46231;DHT22;31949;51.404;-0.038;2023-07-28T13:18:43;22.50;99.90
46231;DHT22;31949;51.404;-0.038;2023-07-28T13:21:10;22.30;99.90
46231;DHT22;31949;51.404;-0.038;2023-07-28T13:23:38;22.20;99.90
46231;DHT22;31949;51.404;-0.038;2023-07-28T13:26:06;22.30;99.90
46231;DHT22;31949;51.404;-0.038;2023-07-28T13:28:33;22.30;99.90
46231;DHT22;31949;51.404;-0.038;2023-07-28T13:31:04;22.50;99.90
46231;DHT22;31949;51.404;-0.038;2023-07-28T13:33:31;22.60;99.90
46231;DHT22;31949;51.404;-0.038;2023-07-28T13:35:59;22.70;99.90
46231;DHT22;31949;51.404;-0.038;2023-07-28T13:38:26;22.90;99.90
46231;DHT22;31949;51.404;-0.038;2023-07-28T13:40:53;23.10;99.90
46231;DHT22;31949;51.404;-0.038;2023-07-28T13:43:39;23.10;99.90
46231;DHT22;31949;51.404;-0.038;2023-07-28T13:46:08;23.30;99.90
46231;DHT22;31949;51.404;-0.038;2023-07-28T13:48:37;23.20;99.90
46231;DHT22;31949;51.404;-0.038;2023-07-28T13:51:09;23.30;99.90
46231;DHT22;31949;51.404;-0.038;2023-07-28T13:53:46;23.10;99.90
46231;DHT22;31949;51.404;-0.038;2023-07-28T13:56:33;23.30;99.90
46231;DHT22;31949;51.404;-0.038;2023-07-28T13:59:00;23.60;99.90
46231;DHT22;31949;51.404;-0.038;2023-07-28T14:01:28;23.60;99.90
46231;DHT22;31949;51.404;-0.038;2023-07-28T14:03:55;23.80;99.90
46231;DHT22;31949;51.404;-0.038;2023-07-28T14:06:22;23.70;99.90
46231;DHT22;31949;51.404;-0.038;2023-07-28T14:08:50;23.80;99.90
46231;DHT22;31949;51.404;-0.038;2023-07-28T14:11:17;24.00;99.90
46231;DHT22;31949;51.404;-0.038;2023-07-28T14:13:44;24.00;99.90
46231;DHT22;31949;51.404;-0.038;2023-07-28T14:16:11;24.10;99.90
46231;DHT22;31949;51.404;-0.038;2023-07-28T14:18:39;24.00;99.90
46231;DHT22;31949;51.404;-0.038;2023-07-28T14:21:07;23.90;99.90
46231;DHT22;31949;51.404;-0.038;2023-07-28T14:23:35;23.90;99.90
46231;DHT22;31949;51.404;-0.038;2023-07-28T14:26:02;24.00;99.90
46231;DHT22;31949;51.404;-0.038;2023-07-28T14:28:30;24.10;99.90
46231;DHT22;31949;51.404;-0.038;2023-07-28T14:30:57;23.90;99.90
46231;DHT22;31949;51.404;-0.038;2023-07-28T14:33:25;23.70;99.90
46231;DHT22;31949;51.404;-0.038;2023-07-28T14:35:52;23.90;99.90
46231;DHT22;31949;51.404;-0.038;2023-07-28T14:38:20;24.00;99.90
46231;DHT22;31949;51.404;-0.038;2023-07-28T14:40:47;24.10;99.90
46231;DHT22;31949;51.404;-0.038;2023-07-28T14:43:16;24.00;99.90
46231;DHT22;31949;51.404;-0.038;2023-07-28T14:45:44;23.90;99.90
46231;DHT22;31949;51.404;-0.038;2023-07-28T14:48:11;23.80;99.90
46231;DHT22;31949;51.404;-0.038;2023-07-28T14:50:38;23.90;99.90
46231;DHT22;31949;51.404;-0.038;2023-07-28T14:53:33;23.90;99.90
46231;DHT22;31949;51.404;-0.038;2023-07-28T14:56:02;23.90;99.90
46231;DHT22;31949;51.404;-0.038;2023-07-28T14:58:29;23.70;99.90
46231;DHT22;31949;51.404;-0.038;2023-07-28T15:00:57;23.70;99.90
46231;DHT22;31949;51.404;-0.038;2023-07-28T15:03:27;23.50;99.90
46231;DHT22;31949;51.404;-0.038;2023-07-28T15:05:55;23.50;99.90
46231;DHT22;31949;51.404;-0.038;2023-07-28T15:08:22;23.40;99.90
46231;DHT22;31949;51.404;-0.038;2023-07-28T15:10:50;23.40;99.90
46231;DHT22;31949;51.404;-0.038;2023-07-28T15:13:18;23.40;99.90
46231;DHT22;31949;51.404;-0.038;2023-07-28T15:15:46;23.40;99.90
46231;DHT22;31949;51.404;-0.038;2023-07-28T15:18:13;23.40;99.90
46231;DHT22;31949;51.404;-0.038;2023-07-28T15:20:42;23.30;99.90
46231;DHT22;31949;51.404;-0.038;2023-07-28T15:23:10;23.30;99.90
46231;DHT22;31949;51.404;-0.038;2023-07-28T15:25:37;23.40;99.90
46231;DHT22;31949;51.404;-0.038;2023-07-28T15:28:12;23.50;99.90
46231;DHT22;31949;51.404;-0.038;2023-07-28T15:30:41;23.40;99.90
46231;DHT22;31949;51.404;-0.038;2023-07-28T15:33:13;23.50;99.90